Meteo Giornale » Osservazioni meteo Stati Uniti (USA) » Kansas City
ore: 09:53 - Osservazioni Meteo Kansas City
Lat. 39° 17' N Lon. 94° 43' W Alt. 312 metri s.l.m.
29 °C
Nuvoloso
Temp. 24 Ore
21 °C
36 °C
Sud/Sud-Ovest
16.7 Km/h
Dew point 19 °C
Umidità 54 %
Visibilità 14 Km
Il sole sorge alle ore 06:47
Il sole tramonta alle ore 19:49
| Data e Ora | Cielo e Fenomeni | T °C | DP °C | Um. % | Pres. hPa | Vis. km | Vento km/h | |
|---|---|---|---|---|---|---|---|---|
| Oggi h: 09:53 | Nuvoloso | 29 | 19 | 54 | 1016 | 14 | S/SO 16.7 | |
| Oggi h: 08:53 | Nuvoloso | 27 | 19 | 61 | 1016 | 10 | S 16.7 | |
| Oggi h: 08:23 | Nuvoloso | 26 | 19 | 65 | 1016 | 10 | S 16.7 | |
| Oggi h: 08:20 | Foschia | 26 | 19 | 65 | 1016 | 10 | S 16.7 | |
| Oggi h: 07:53 | Nuvoloso | 24 | 18 | 69 | 1016 | 10 | S 14.8 | |
| Oggi h: 06:53 | Nuvoloso | 22 | 17 | 73 | 1016 | 10 | S/SO 14.8 | |
| Oggi h: 05:53 | Nuvoloso | 22 | 17 | 73 | 1015 | 10 | S/SO 13 | |
| Oggi h: 04:53 | Nuvoloso | 21 | 17 | 77 | 1015 | 10 | S 16.7 | |
| Oggi h: 03:53 | Nuvoloso | 24 | 16 | 60 | 1015 | 10 | S/SO 11.1 | |
| Oggi h: 02:53 | Poco Nuvoloso | 22 | 17 | 73 | 1014 | 10 | S 13 | |
| Oggi h: 01:53 | Sereno | 23 | 17 | 68 | 1015 | 10 | S 11.1 | |
| Oggi h: 00:53 | Poco Nuvoloso | 24 | 17 | 64 | 1015 | 10 | S/SO 11.1 | |
| Ieri h: 23:53 | Nuvoloso | 23 | 18 | 73 | 1015 | 10 | S 14.8 | |
| Ieri h: 22:53 | Nuvoloso | 24 | 19 | 73 | 1014 | 10 | S 14.8 | |
| Ieri h: 21:53 | Nuvoloso | 26 | 19 | 65 | 1014 | 10 | S 14.8 | |
| Ieri h: 20:53 | Nuvoloso | 27 | 20 | 65 | 1014 | 10 | S 9.3 | |
| Ieri h: 19:53 | Nuvoloso | 31 | 21 | 55 | 1013 | 10 | S 9.3 | |
| Ieri h: 18:53 | Nuvoloso | 32 | 21 | 52 | 1013 | 10 | S/SO 11.1 | |
| Ieri h: 17:53 | Nuvoloso | 36 | 21 | 41 | 1013 | 10 | N 5.5 | |
| Ieri h: 16:53 | Nuvoloso | 36 | 20 | 39 | 1013 | 10 | N 11.1 | |
| Ieri h: 15:53 | Nuvoloso | 36 | 20 | 39 | 1014 | 10 | O 9.3 | |
| Ieri h: 14:53 | Nuvoloso | 36 | 21 | 41 | 1014 | 10 | O/SO 14.8 | |
| Ieri h: 13:53 | Nuvoloso | 34 | 20 | 43 | 1014 | 10 | SO 24 | |
| Ieri h: 12:53 | Nuvoloso | 33 | 19 | 43 | 1014 | 10 | S/SO 18.5 | |
| Ieri h: 11:53 | Molto Nuvoloso | 32 | 20 | 49 | 1015 | 10 | S/SO 20.3 | |
| Ieri h: 10:53 | Molto Nuvoloso | 29 | 19 | 54 | 1015 | 10 | SO 16.7 | |



